sensor_id;sensor_type;location;lat;lon;timestamp;P1;durP1;ratioP1;P2;durP2;ratioP2
32932;SDS011;19444;50.518;10.870;2022-08-24T00:01:54;3.50;;;3.20;;
32932;SDS011;19444;50.518;10.870;2022-08-24T00:04:52;5.25;;;4.70;;
32932;SDS011;19444;50.518;10.870;2022-08-24T00:07:49;5.93;;;4.93;;
32932;SDS011;19444;50.518;10.870;2022-08-24T00:10:46;4.55;;;3.78;;
32932;SDS011;19444;50.518;10.870;2022-08-24T00:13:43;5.55;;;4.57;;
32932;SDS011;19444;50.518;10.870;2022-08-24T00:16:41;4.95;;;4.45;;
32932;SDS011;19444;50.518;10.870;2022-08-24T00:19:38;4.15;;;3.72;;
32932;SDS011;19444;50.518;10.870;2022-08-24T00:22:35;5.03;;;4.35;;
32932;SDS011;19444;50.518;10.870;2022-08-24T00:25:34;4.57;;;4.18;;
32932;SDS011;19444;50.518;10.870;2022-08-24T00:28:32;6.32;;;4.85;;
32932;SDS011;19444;50.518;10.870;2022-08-24T00:31:30;5.93;;;5.00;;
32932;SDS011;19444;50.518;10.870;2022-08-24T00:34:27;6.93;;;4.45;;
32932;SDS011;19444;50.518;10.870;2022-08-24T00:37:25;4.45;;;3.97;;
32932;SDS011;19444;50.518;10.870;2022-08-24T00:40:25;4.97;;;4.55;;
32932;SDS011;19444;50.518;10.870;2022-08-24T00:43:29;6.68;;;4.22;;
32932;SDS011;19444;50.518;10.870;2022-08-24T00:49:56;4.55;;;3.78;;
32932;SDS011;19444;50.518;10.870;2022-08-24T00:53:09;5.65;;;4.32;;
32932;SDS011;19444;50.518;10.870;2022-08-24T00:56:16;6.70;;;4.40;;
32932;SDS011;19444;50.518;10.870;2022-08-24T00:59:26;5.03;;;4.53;;
32932;SDS011;19444;50.518;10.870;2022-08-24T01:02:30;5.03;;;4.43;;
32932;SDS011;19444;50.518;10.870;2022-08-24T01:05:31;5.65;;;4.65;;
32932;SDS011;19444;50.518;10.870;2022-08-24T01:08:30;4.82;;;3.85;;
32932;SDS011;19444;50.518;10.870;2022-08-24T01:11:28;6.75;;;4.05;;
32932;SDS011;19444;50.518;10.870;2022-08-24T01:14:29;5.00;;;3.78;;
32932;SDS011;19444;50.518;10.870;2022-08-24T01:17:26;5.63;;;3.50;;
32932;SDS011;19444;50.518;10.870;2022-08-24T01:20:43;6.00;;;4.28;;
32932;SDS011;19444;50.518;10.870;2022-08-24T01:23:51;5.40;;;4.57;;
32932;SDS011;19444;50.518;10.870;2022-08-24T01:26:52;4.97;;;4.57;;
32932;SDS011;19444;50.518;10.870;2022-08-24T01:29:49;8.95;;;5.20;;
32932;SDS011;19444;50.518;10.870;2022-08-24T01:33:01;7.35;;;4.97;;
32932;SDS011;19444;50.518;10.870;2022-08-24T01:36:16;6.68;;;5.03;;
32932;SDS011;19444;50.518;10.870;2022-08-24T01:39:24;6.88;;;4.68;;
32932;SDS011;19444;50.518;10.870;2022-08-24T01:42:28;5.93;;;4.40;;
32932;SDS011;19444;50.518;10.870;2022-08-24T01:45:25;4.78;;;4.20;;
32932;SDS011;19444;50.518;10.870;2022-08-24T01:48:22;6.20;;;4.35;;
32932;SDS011;19444;50.518;10.870;2022-08-24T01:51:19;5.22;;;4.05;;
32932;SDS011;19444;50.518;10.870;2022-08-24T01:54:17;4.97;;;4.05;;
32932;SDS011;19444;50.518;10.870;2022-08-24T01:57:14;5.40;;;4.10;;
32932;SDS011;19444;50.518;10.870;2022-08-24T02:00:12;5.97;;;5.00;;
32932;SDS011;19444;50.518;10.870;2022-08-24T02:03:10;4.85;;;4.10;;
32932;SDS011;19444;50.518;10.870;2022-08-24T02:06:07;5.60;;;4.90;;
32932;SDS011;19444;50.518;10.870;2022-08-24T02:09:04;5.72;;;5.13;;
32932;SDS011;19444;50.518;10.870;2022-08-24T02:12:02;5.40;;;4.47;;
32932;SDS011;19444;50.518;10.870;2022-08-24T02:15:00;5.45;;;4.78;;
32932;SDS011;19444;50.518;10.870;2022-08-24T02:17:58;5.25;;;4.18;;
32932;SDS011;19444;50.518;10.870;2022-08-24T02:20:56;5.63;;;4.90;;
32932;SDS011;19444;50.518;10.870;2022-08-24T02:23:53;6.78;;;4.95;;
32932;SDS011;19444;50.518;10.870;2022-08-24T02:26:50;5.10;;;4.22;;
32932;SDS011;19444;50.518;10.870;2022-08-24T02:29:46;5.53;;;4.93;;
32932;SDS011;19444;50.518;10.870;2022-08-24T02:32:43;5.68;;;5.00;;
32932;SDS011;19444;50.518;10.870;2022-08-24T02:35:40;5.00;;;4.40;;
32932;SDS011;19444;50.518;10.870;2022-08-24T02:38:37;6.45;;;4.50;;
32932;SDS011;19444;50.518;10.870;2022-08-24T02:41:35;5.00;;;4.53;;
32932;SDS011;19444;50.518;10.870;2022-08-24T02:44:32;5.35;;;4.35;;
32932;SDS011;19444;50.518;10.870;2022-08-24T02:47:30;5.43;;;4.50;;
32932;SDS011;19444;50.518;10.870;2022-08-24T02:50:36;5.65;;;4.63;;
32932;SDS011;19444;50.518;10.870;2022-08-24T02:53:38;5.45;;;4.38;;
32932;SDS011;19444;50.518;10.870;2022-08-24T02:56:35;4.80;;;4.18;;
32932;SDS011;19444;50.518;10.870;2022-08-24T02:59:32;5.65;;;4.35;;
32932;SDS011;19444;50.518;10.870;2022-08-24T03:02:29;5.22;;;4.38;;
32932;SDS011;19444;50.518;10.870;2022-08-24T03:05:26;6.15;;;4.65;;
32932;SDS011;19444;50.518;10.870;2022-08-24T03:08:24;5.80;;;4.80;;
32932;SDS011;19444;50.518;10.870;2022-08-24T03:11:24;6.25;;;4.25;;
32932;SDS011;19444;50.518;10.870;2022-08-24T03:14:23;5.55;;;4.57;;
32932;SDS011;19444;50.518;10.870;2022-08-24T03:17:20;5.20;;;4.13;;
32932;SDS011;19444;50.518;10.870;2022-08-24T03:20:19;7.28;;;4.30;;
32932;SDS011;19444;50.518;10.870;2022-08-24T03:23:18;5.10;;;4.55;;
32932;SDS011;19444;50.518;10.870;2022-08-24T03:26:15;5.20;;;4.47;;
32932;SDS011;19444;50.518;10.870;2022-08-24T03:29:13;4.40;;;3.92;;
32932;SDS011;19444;50.518;10.870;2022-08-24T03:32:11;4.43;;;3.92;;
32932;SDS011;19444;50.518;10.870;2022-08-24T03:35:08;3.95;;;2.92;;
32932;SDS011;19444;50.518;10.870;2022-08-24T03:38:07;4.75;;;3.55;;
32932;SDS011;19444;50.518;10.870;2022-08-24T03:41:04;4.68;;;3.78;;
32932;SDS011;19444;50.518;10.870;2022-08-24T03:44:01;6.18;;;4.47;;
32932;SDS011;19444;50.518;10.870;2022-08-24T03:46:59;5.13;;;3.95;;
32932;SDS011;19444;50.518;10.870;2022-08-24T03:49:56;8.93;;;6.13;;
32932;SDS011;19444;50.518;10.870;2022-08-24T03:52:53;10.23;;;5.80;;
32932;SDS011;19444;50.518;10.870;2022-08-24T03:55:50;16.65;;;8.45;;
32932;SDS011;19444;50.518;10.870;2022-08-24T03:58:47;22.45;;;11.98;;
32932;SDS011;19444;50.518;10.870;2022-08-24T04:01:45;20.00;;;10.35;;
32932;SDS011;19444;50.518;10.870;2022-08-24T04:04:42;16.25;;;9.38;;
32932;SDS011;19444;50.518;10.870;2022-08-24T04:07:39;18.73;;;8.93;;
32932;SDS011;19444;50.518;10.870;2022-08-24T04:10:37;12.93;;;7.25;;
32932;SDS011;19444;50.518;10.870;2022-08-24T04:13:39;11.13;;;7.38;;
32932;SDS011;19444;50.518;10.870;2022-08-24T04:16:36;9.95;;;6.78;;
32932;SDS011;19444;50.518;10.870;2022-08-24T04:19:34;13.23;;;7.20;;
32932;SDS011;19444;50.518;10.870;2022-08-24T04:22:31;9.70;;;6.38;;
32932;SDS011;19444;50.518;10.870;2022-08-24T04:25:29;7.10;;;5.22;;
32932;SDS011;19444;50.518;10.870;2022-08-24T04:28:26;7.25;;;5.28;;
32932;SDS011;19444;50.518;10.870;2022-08-24T04:31:23;4.75;;;3.67;;
32932;SDS011;19444;50.518;10.870;2022-08-24T04:34:23;5.85;;;4.28;;
32932;SDS011;19444;50.518;10.870;2022-08-24T04:37:20;7.28;;;3.95;;
32932;SDS011;19444;50.518;10.870;2022-08-24T04:40:24;5.60;;;3.60;;
32932;SDS011;19444;50.518;10.870;2022-08-24T04:43:21;3.30;;;2.50;;
32932;SDS011;19444;50.518;10.870;2022-08-24T04:46:18;4.57;;;4.10;;
32932;SDS011;19444;50.518;10.870;2022-08-24T04:49:15;4.47;;;3.38;;
32932;SDS011;19444;50.518;10.870;2022-08-24T04:52:12;4.35;;;3.90;;
32932;SDS011;19444;50.518;10.870;2022-08-24T04:55:09;4.93;;;3.60;;
32932;SDS011;19444;50.518;10.870;2022-08-24T04:58:07;5.78;;;4.20;;
32932;SDS011;19444;50.518;10.870;2022-08-24T05:01:08;6.95;;;5.10;;
32932;SDS011;19444;50.518;10.870;2022-08-24T05:04:14;5.50;;;4.07;;
32932;SDS011;19444;50.518;10.870;2022-08-24T05:07:11;5.07;;;4.28;;
32932;SDS011;19444;50.518;10.870;2022-08-24T05:10:08;8.05;;;4.20;;
32932;SDS011;19444;50.518;10.870;2022-08-24T05:13:06;5.63;;;3.78;;
32932;SDS011;19444;50.518;10.870;2022-08-24T05:16:05;4.43;;;3.60;;
32932;SDS011;19444;50.518;10.870;2022-08-24T05:19:04;7.18;;;4.43;;
32932;SDS011;19444;50.518;10.870;2022-08-24T05:22:02;4.10;;;3.70;;
32932;SDS011;19444;50.518;10.870;2022-08-24T05:24:59;5.00;;;3.30;;
32932;SDS011;19444;50.518;10.870;2022-08-24T05:27:56;5.72;;;3.58;;
32932;SDS011;19444;50.518;10.870;2022-08-24T05:30:53;7.13;;;2.78;;
32932;SDS011;19444;50.518;10.870;2022-08-24T05:33:50;3.85;;;3.08;;
32932;SDS011;19444;50.518;10.870;2022-08-24T05:36:47;5.43;;;4.32;;
32932;SDS011;19444;50.518;10.870;2022-08-24T05:39:44;2.92;;;2.63;;
32932;SDS011;19444;50.518;10.870;2022-08-24T05:42:40;7.40;;;3.40;;
32932;SDS011;19444;50.518;10.870;2022-08-24T05:45:39;4.00;;;3.60;;
32932;SDS011;19444;50.518;10.870;2022-08-24T05:48:37;3.65;;;3.15;;
32932;SDS011;19444;50.518;10.870;2022-08-24T05:51:34;5.75;;;3.90;;
32932;SDS011;19444;50.518;10.870;2022-08-24T05:54:31;7.95;;;4.43;;
32932;SDS011;19444;50.518;10.870;2022-08-24T05:57:31;4.18;;;2.60;;
32932;SDS011;19444;50.518;10.870;2022-08-24T06:00:31;4.88;;;3.58;;
32932;SDS011;19444;50.518;10.870;2022-08-24T06:03:28;6.03;;;4.40;;
32932;SDS011;19444;50.518;10.870;2022-08-24T06:06:25;4.05;;;3.65;;
32932;SDS011;19444;50.518;10.870;2022-08-24T06:09:23;5.20;;;4.13;;
32932;SDS011;19444;50.518;10.870;2022-08-24T06:12:20;7.03;;;4.03;;
32932;SDS011;19444;50.518;10.870;2022-08-24T06:15:17;4.47;;;3.88;;
32932;SDS011;19444;50.518;10.870;2022-08-24T06:18:14;5.70;;;3.90;;
32932;SDS011;19444;50.518;10.870;2022-08-24T06:21:13;4.65;;;3.80;;
32932;SDS011;19444;50.518;10.870;2022-08-24T06:24:13;7.25;;;4.45;;
32932;SDS011;19444;50.518;10.870;2022-08-24T06:27:11;4.45;;;3.90;;
32932;SDS011;19444;50.518;10.870;2022-08-24T06:30:16;5.43;;;3.72;;
32932;SDS011;19444;50.518;10.870;2022-08-24T06:33:13;4.88;;;4.38;;
32932;SDS011;19444;50.518;10.870;2022-08-24T06:36:10;5.70;;;3.55;;
32932;SDS011;19444;50.518;10.870;2022-08-24T06:39:07;5.05;;;4.18;;
32932;SDS011;19444;50.518;10.870;2022-08-24T06:42:05;5.70;;;4.30;;
32932;SDS011;19444;50.518;10.870;2022-08-24T06:45:02;5.35;;;3.60;;
32932;SDS011;19444;50.518;10.870;2022-08-24T06:47:59;5.53;;;4.15;;
32932;SDS011;19444;50.518;10.870;2022-08-24T06:50:57;5.97;;;3.97;;
32932;SDS011;19444;50.518;10.870;2022-08-24T06:53:54;5.70;;;3.90;;
32932;SDS011;19444;50.518;10.870;2022-08-24T06:56:51;3.70;;;3.22;;
32932;SDS011;19444;50.518;10.870;2022-08-24T06:59:48;4.95;;;4.07;;
32932;SDS011;19444;50.518;10.870;2022-08-24T07:02:45;7.95;;;3.47;;
32932;SDS011;19444;50.518;10.870;2022-08-24T07:05:48;4.75;;;3.58;;
32932;SDS011;19444;50.518;10.870;2022-08-24T07:08:49;7.53;;;3.88;;
32932;SDS011;19444;50.518;10.870;2022-08-24T07:11:47;6.50;;;4.03;;
32932;SDS011;19444;50.518;10.870;2022-08-24T07:14:44;4.95;;;3.80;;
32932;SDS011;19444;50.518;10.870;2022-08-24T07:17:40;7.93;;;3.70;;
32932;SDS011;19444;50.518;10.870;2022-08-24T07:20:37;11.10;;;4.20;;
32932;SDS011;19444;50.518;10.870;2022-08-24T07:23:35;8.05;;;3.70;;
32932;SDS011;19444;50.518;10.870;2022-08-24T07:26:37;4.63;;;3.65;;
32932;SDS011;19444;50.518;10.870;2022-08-24T07:29:35;8.40;;;3.95;;
32932;SDS011;19444;50.518;10.870;2022-08-24T07:32:45;6.95;;;4.07;;
32932;SDS011;19444;50.518;10.870;2022-08-24T07:35:42;6.28;;;3.92;;
32932;SDS011;19444;50.518;10.870;2022-08-24T07:38:39;7.20;;;4.40;;
32932;SDS011;19444;50.518;10.870;2022-08-24T07:41:37;5.28;;;3.70;;
32932;SDS011;19444;50.518;10.870;2022-08-24T07:44:56;6.32;;;3.47;;
32932;SDS011;19444;50.518;10.870;2022-08-24T07:47:53;4.30;;;3.90;;
32932;SDS011;19444;50.518;10.870;2022-08-24T07:50:51;4.85;;;2.83;;
32932;SDS011;19444;50.518;10.870;2022-08-24T07:53:48;5.00;;;2.83;;
32932;SDS011;19444;50.518;10.870;2022-08-24T07:56:49;5.20;;;3.33;;
32932;SDS011;19444;50.518;10.870;2022-08-24T07:59:46;3.83;;;2.92;;
32932;SDS011;19444;50.518;10.870;2022-08-24T08:02:43;6.05;;;3.35;;
32932;SDS011;19444;50.518;10.870;2022-08-24T08:05:41;3.97;;;2.80;;
32932;SDS011;19444;50.518;10.870;2022-08-24T08:08:40;5.13;;;2.85;;
32932;SDS011;19444;50.518;10.870;2022-08-24T08:11:37;4.35;;;2.80;;
32932;SDS011;19444;50.518;10.870;2022-08-24T08:14:33;3.03;;;2.53;;
32932;SDS011;19444;50.518;10.870;2022-08-24T08:17:30;2.97;;;2.67;;
32932;SDS011;19444;50.518;10.870;2022-08-24T08:20:27;5.60;;;2.40;;
32932;SDS011;19444;50.518;10.870;2022-08-24T08:23:24;3.25;;;2.80;;
32932;SDS011;19444;50.518;10.870;2022-08-24T08:26:44;3.90;;;2.70;;
32932;SDS011;19444;50.518;10.870;2022-08-24T08:29:42;4.82;;;2.80;;
32932;SDS011;19444;50.518;10.870;2022-08-24T08:32:40;3.53;;;2.72;;
32932;SDS011;19444;50.518;10.870;2022-08-24T08:35:37;3.58;;;2.72;;
32932;SDS011;19444;50.518;10.870;2022-08-24T08:38:35;3.90;;;1.85;;
32932;SDS011;19444;50.518;10.870;2022-08-24T08:41:54;2.53;;;1.40;;
32932;SDS011;19444;50.518;10.870;2022-08-24T08:45:10;2.53;;;1.75;;
32932;SDS011;19444;50.518;10.870;2022-08-24T08:48:31;3.83;;;1.90;;
32932;SDS011;19444;50.518;10.870;2022-08-24T08:58:32;2.28;;;1.40;;
32932;SDS011;19444;50.518;10.870;2022-08-24T09:09:24;2.88;;;1.02;;
32932;SDS011;19444;50.518;10.870;2022-08-24T09:19:49;2.13;;;1.48;;
32932;SDS011;19444;50.518;10.870;2022-08-24T09:26:29;1.83;;;0.93;;
32932;SDS011;19444;50.518;10.870;2022-08-24T09:30:03;2.20;;;1.58;;
32932;SDS011;19444;50.518;10.870;2022-08-24T09:33:15;2.08;;;0.80;;
32932;SDS011;19444;50.518;10.870;2022-08-24T09:36:19;1.55;;;1.00;;
32932;SDS011;19444;50.518;10.870;2022-08-24T09:39:42;2.33;;;1.00;;
32932;SDS011;19444;50.518;10.870;2022-08-24T09:43:05;3.63;;;1.13;;
32932;SDS011;19444;50.518;10.870;2022-08-24T09:50:16;1.90;;;1.23;;
32932;SDS011;19444;50.518;10.870;2022-08-24T10:04:49;1.80;;;1.45;;
32932;SDS011;19444;50.518;10.870;2022-08-24T10:07:54;2.83;;;1.58;;
32932;SDS011;19444;50.518;10.870;2022-08-24T10:14:59;2.93;;;1.57;;
32932;SDS011;19444;50.518;10.870;2022-08-24T10:18:10;2.75;;;1.70;;
32932;SDS011;19444;50.518;10.870;2022-08-24T10:25:02;2.17;;;1.70;;
32932;SDS011;19444;50.518;10.870;2022-08-24T10:28:35;1.95;;;1.70;;
32932;SDS011;19444;50.518;10.870;2022-08-24T10:32:06;2.15;;;1.15;;
32932;SDS011;19444;50.518;10.870;2022-08-24T10:35:34;2.22;;;1.50;;
32932;SDS011;19444;50.518;10.870;2022-08-24T10:39:11;4.40;;;1.30;;
32932;SDS011;19444;50.518;10.870;2022-08-24T10:43:00;1.70;;;1.20;;
32932;SDS011;19444;50.518;10.870;2022-08-24T10:46:42;1.88;;;1.00;;
32932;SDS011;19444;50.518;10.870;2022-08-24T10:53:31;1.25;;;1.10;;
32932;SDS011;19444;50.518;10.870;2022-08-24T10:56:33;2.60;;;1.00;;
32932;SDS011;19444;50.518;10.870;2022-08-24T10:59:51;1.83;;;1.15;;
32932;SDS011;19444;50.518;10.870;2022-08-24T11:03:04;2.45;;;1.42;;
32932;SDS011;19444;50.518;10.870;2022-08-24T11:06:04;1.98;;;1.10;;
32932;SDS011;19444;50.518;10.870;2022-08-24T11:09:13;2.25;;;1.70;;
32932;SDS011;19444;50.518;10.870;2022-08-24T11:12:16;2.95;;;1.50;;
32932;SDS011;19444;50.518;10.870;2022-08-24T11:15:25;3.00;;;1.40;;
32932;SDS011;19444;50.518;10.870;2022-08-24T11:18:23;3.60;;;1.88;;
32932;SDS011;19444;50.518;10.870;2022-08-24T11:21:38;2.20;;;1.60;;
32932;SDS011;19444;50.518;10.870;2022-08-24T11:24:45;6.90;;;1.58;;
32932;SDS011;19444;50.518;10.870;2022-08-24T11:27:45;3.05;;;1.80;;
32932;SDS011;19444;50.518;10.870;2022-08-24T11:30:46;2.95;;;1.60;;
32932;SDS011;19444;50.518;10.870;2022-08-24T11:33:45;1.90;;;1.15;;
32932;SDS011;19444;50.518;10.870;2022-08-24T11:36:48;2.22;;;1.50;;
32932;SDS011;19444;50.518;10.870;2022-08-24T11:39:44;2.85;;;0.82;;
32932;SDS011;19444;50.518;10.870;2022-08-24T11:46:09;1.92;;;1.08;;
32932;SDS011;19444;50.518;10.870;2022-08-24T11:53:02;1.83;;;1.40;;
32932;SDS011;19444;50.518;10.870;2022-08-24T12:00:00;2.05;;;1.60;;
32932;SDS011;19444;50.518;10.870;2022-08-24T12:03:17;1.90;;;1.70;;
32932;SDS011;19444;50.518;10.870;2022-08-24T12:10:13;2.33;;;1.30;;
32932;SDS011;19444;50.518;10.870;2022-08-24T12:13:42;1.40;;;1.00;;
32932;SDS011;19444;50.518;10.870;2022-08-24T12:17:25;1.92;;;0.73;;
32932;SDS011;19444;50.518;10.870;2022-08-24T12:20:43;3.00;;;0.93;;
32932;SDS011;19444;50.518;10.870;2022-08-24T12:23:46;1.90;;;1.00;;
32932;SDS011;19444;50.518;10.870;2022-08-24T12:27:21;1.35;;;0.95;;
32932;SDS011;19444;50.518;10.870;2022-08-24T12:30:27;0.88;;;0.63;;
32932;SDS011;19444;50.518;10.870;2022-08-24T12:33:28;1.17;;;0.80;;
32932;SDS011;19444;50.518;10.870;2022-08-24T12:39:53;1.08;;;0.80;;
32932;SDS011;19444;50.518;10.870;2022-08-24T12:43:30;1.58;;;0.95;;
32932;SDS011;19444;50.518;10.870;2022-08-24T12:46:35;0.93;;;0.68;;
32932;SDS011;19444;50.518;10.870;2022-08-24T12:49:44;2.08;;;1.00;;
32932;SDS011;19444;50.518;10.870;2022-08-24T12:53:05;2.17;;;0.95;;
32932;SDS011;19444;50.518;10.870;2022-08-24T13:00:07;1.63;;;0.80;;
32932;SDS011;19444;50.518;10.870;2022-08-24T13:03:37;2.10;;;1.02;;
32932;SDS011;19444;50.518;10.870;2022-08-24T13:06:41;1.58;;;0.70;;
32932;SDS011;19444;50.518;10.870;2022-08-24T13:12:54;2.50;;;1.10;;
32932;SDS011;19444;50.518;10.870;2022-08-24T13:16:07;1.40;;;0.80;;
32932;SDS011;19444;50.518;10.870;2022-08-24T13:19:16;1.00;;;0.75;;
32932;SDS011;19444;50.518;10.870;2022-08-24T13:25:40;1.63;;;0.88;;
32932;SDS011;19444;50.518;10.870;2022-08-24T13:28:39;2.13;;;0.80;;
32932;SDS011;19444;50.518;10.870;2022-08-24T13:31:47;1.88;;;0.82;;
32932;SDS011;19444;50.518;10.870;2022-08-24T13:34:49;0.73;;;0.68;;
32932;SDS011;19444;50.518;10.870;2022-08-24T13:38:20;3.08;;;1.15;;
32932;SDS011;19444;50.518;10.870;2022-08-24T13:45:14;2.10;;;1.17;;
32932;SDS011;19444;50.518;10.870;2022-08-24T13:48:47;2.92;;;1.17;;
32932;SDS011;19444;50.518;10.870;2022-08-24T13:52:38;3.15;;;1.10;;
32932;SDS011;19444;50.518;10.870;2022-08-24T13:59:47;1.90;;;1.10;;
32932;SDS011;19444;50.518;10.870;2022-08-24T14:06:29;1.63;;;1.05;;
32932;SDS011;19444;50.518;10.870;2022-08-24T14:09:58;1.65;;;1.20;;
32932;SDS011;19444;50.518;10.870;2022-08-24T14:17:13;1.52;;;1.25;;
32932;SDS011;19444;50.518;10.870;2022-08-24T14:31:26;1.40;;;1.27;;
32932;SDS011;19444;50.518;10.870;2022-08-24T14:37:47;1.55;;;1.10;;
32932;SDS011;19444;50.518;10.870;2022-08-24T14:51:22;2.17;;;1.52;;
32932;SDS011;19444;50.518;10.870;2022-08-24T15:01:48;4.47;;;2.00;;
32932;SDS011;19444;50.518;10.870;2022-08-24T15:05:15;2.70;;;1.65;;
32932;SDS011;19444;50.518;10.870;2022-08-24T15:11:38;2.97;;;2.15;;
32932;SDS011;19444;50.518;10.870;2022-08-24T15:14:45;2.85;;;2.25;;
32932;SDS011;19444;50.518;10.870;2022-08-24T15:17:56;1.92;;;1.48;;
32932;SDS011;19444;50.518;10.870;2022-08-24T15:24:44;5.57;;;2.22;;
32932;SDS011;19444;50.518;10.870;2022-08-24T15:28:10;4.32;;;2.08;;
32932;SDS011;19444;50.518;10.870;2022-08-24T15:31:18;2.97;;;1.58;;
32932;SDS011;19444;50.518;10.870;2022-08-24T15:34:19;3.53;;;2.05;;
32932;SDS011;19444;50.518;10.870;2022-08-24T15:37:40;3.00;;;1.80;;
32932;SDS011;19444;50.518;10.870;2022-08-24T15:40:38;2.63;;;2.30;;
32932;SDS011;19444;50.518;10.870;2022-08-24T15:43:43;3.42;;;2.00;;
32932;SDS011;19444;50.518;10.870;2022-08-24T15:46:53;3.35;;;1.90;;
32932;SDS011;19444;50.518;10.870;2022-08-24T15:50:00;2.95;;;2.28;;
32932;SDS011;19444;50.518;10.870;2022-08-24T15:53:25;4.00;;;2.30;;
32932;SDS011;19444;50.518;10.870;2022-08-24T15:56:27;2.78;;;2.15;;
32932;SDS011;19444;50.518;10.870;2022-08-24T16:02:36;2.63;;;2.42;;
32932;SDS011;19444;50.518;10.870;2022-08-24T16:05:35;3.58;;;2.17;;
32932;SDS011;19444;50.518;10.870;2022-08-24T16:08:38;2.50;;;2.30;;
32932;SDS011;19444;50.518;10.870;2022-08-24T16:11:59;2.65;;;2.40;;
32932;SDS011;19444;50.518;10.870;2022-08-24T16:15:10;4.15;;;3.05;;
32932;SDS011;19444;50.518;10.870;2022-08-24T16:18:15;2.17;;;1.98;;
32932;SDS011;19444;50.518;10.870;2022-08-24T16:21:16;3.03;;;2.00;;
32932;SDS011;19444;50.518;10.870;2022-08-24T16:24:31;4.22;;;2.35;;
32932;SDS011;19444;50.518;10.870;2022-08-24T16:27:54;2.63;;;1.98;;
32932;SDS011;19444;50.518;10.870;2022-08-24T16:31:03;6.15;;;5.55;;
32932;SDS011;19444;50.518;10.870;2022-08-24T16:37:25;3.50;;;2.72;;
32932;SDS011;19444;50.518;10.870;2022-08-24T16:40:22;3.67;;;2.10;;
32932;SDS011;19444;50.518;10.870;2022-08-24T16:43:19;2.97;;;2.05;;
32932;SDS011;19444;50.518;10.870;2022-08-24T16:46:20;6.90;;;3.97;;
32932;SDS011;19444;50.518;10.870;2022-08-24T16:49:19;10.88;;;7.75;;
32932;SDS011;19444;50.518;10.870;2022-08-24T16:52:16;4.00;;;2.85;;
32932;SDS011;19444;50.518;10.870;2022-08-24T16:55:14;3.88;;;2.40;;
32932;SDS011;19444;50.518;10.870;2022-08-24T16:58:11;4.47;;;3.28;;
32932;SDS011;19444;50.518;10.870;2022-08-24T17:01:07;3.33;;;2.30;;
32932;SDS011;19444;50.518;10.870;2022-08-24T17:04:04;4.38;;;3.90;;
32932;SDS011;19444;50.518;10.870;2022-08-24T17:07:02;7.35;;;5.10;;
32932;SDS011;19444;50.518;10.870;2022-08-24T17:10:02;4.10;;;2.92;;
32932;SDS011;19444;50.518;10.870;2022-08-24T17:13:02;3.47;;;2.72;;
32932;SDS011;19444;50.518;10.870;2022-08-24T17:16:02;3.58;;;2.45;;
32932;SDS011;19444;50.518;10.870;2022-08-24T17:19:05;3.97;;;2.42;;
32932;SDS011;19444;50.518;10.870;2022-08-24T17:22:09;5.03;;;3.45;;
32932;SDS011;19444;50.518;10.870;2022-08-24T17:25:11;3.20;;;2.83;;
32932;SDS011;19444;50.518;10.870;2022-08-24T17:28:12;3.47;;;3.03;;
32932;SDS011;19444;50.518;10.870;2022-08-24T17:31:13;4.30;;;2.88;;
32932;SDS011;19444;50.518;10.870;2022-08-24T17:34:11;4.90;;;2.95;;
32932;SDS011;19444;50.518;10.870;2022-08-24T17:37:08;4.60;;;4.10;;
32932;SDS011;19444;50.518;10.870;2022-08-24T17:40:07;6.53;;;3.85;;
32932;SDS011;19444;50.518;10.870;2022-08-24T17:43:10;4.47;;;3.28;;
32932;SDS011;19444;50.518;10.870;2022-08-24T17:46:08;5.38;;;3.80;;
32932;SDS011;19444;50.518;10.870;2022-08-24T17:49:07;4.93;;;3.40;;
32932;SDS011;19444;50.518;10.870;2022-08-24T17:52:08;5.45;;;3.88;;
32932;SDS011;19444;50.518;10.870;2022-08-24T17:55:06;4.88;;;3.90;;
32932;SDS011;19444;50.518;10.870;2022-08-24T18:01:02;6.55;;;4.22;;
32932;SDS011;19444;50.518;10.870;2022-08-24T18:03:59;7.15;;;4.53;;
32932;SDS011;19444;50.518;10.870;2022-08-24T18:06:57;6.90;;;4.28;;
32932;SDS011;19444;50.518;10.870;2022-08-24T18:09:58;3.28;;;2.85;;
32932;SDS011;19444;50.518;10.870;2022-08-24T18:12:57;3.75;;;2.58;;
32932;SDS011;19444;50.518;10.870;2022-08-24T18:15:56;4.63;;;3.17;;
32932;SDS011;19444;50.518;10.870;2022-08-24T18:18:53;3.53;;;3.08;;
32932;SDS011;19444;50.518;10.870;2022-08-24T18:21:53;6.18;;;2.88;;
32932;SDS011;19444;50.518;10.870;2022-08-24T18:24:50;8.77;;;5.72;;
32932;SDS011;19444;50.518;10.870;2022-08-24T18:27:47;7.43;;;5.13;;
32932;SDS011;19444;50.518;10.870;2022-08-24T18:30:46;7.07;;;5.05;;
32932;SDS011;19444;50.518;10.870;2022-08-24T18:33:43;7.63;;;5.40;;
32932;SDS011;19444;50.518;10.870;2022-08-24T18:36:40;7.68;;;4.32;;
32932;SDS011;19444;50.518;10.870;2022-08-24T18:39:37;5.78;;;5.00;;
32932;SDS011;19444;50.518;10.870;2022-08-24T18:42:34;6.75;;;4.70;;
32932;SDS011;19444;50.518;10.870;2022-08-24T18:45:33;6.88;;;4.68;;
32932;SDS011;19444;50.518;10.870;2022-08-24T18:48:30;9.63;;;5.13;;
32932;SDS011;19444;50.518;10.870;2022-08-24T18:51:27;9.20;;;7.13;;
32932;SDS011;19444;50.518;10.870;2022-08-24T18:54:32;10.45;;;7.03;;
32932;SDS011;19444;50.518;10.870;2022-08-24T18:57:33;5.53;;;4.15;;
32932;SDS011;19444;50.518;10.870;2022-08-24T19:00:30;5.82;;;4.10;;
32932;SDS011;19444;50.518;10.870;2022-08-24T19:03:27;6.07;;;4.97;;
32932;SDS011;19444;50.518;10.870;2022-08-24T19:06:24;8.73;;;5.40;;
32932;SDS011;19444;50.518;10.870;2022-08-24T19:09:21;5.38;;;3.95;;
32932;SDS011;19444;50.518;10.870;2022-08-24T19:12:18;3.72;;;3.03;;
32932;SDS011;19444;50.518;10.870;2022-08-24T19:15:16;3.45;;;2.70;;
32932;SDS011;19444;50.518;10.870;2022-08-24T19:18:33;4.50;;;3.67;;
32932;SDS011;19444;50.518;10.870;2022-08-24T19:21:32;5.20;;;3.95;;
32932;SDS011;19444;50.518;10.870;2022-08-24T19:24:31;4.60;;;3.00;;
32932;SDS011;19444;50.518;10.870;2022-08-24T19:27:29;3.85;;;2.67;;
32932;SDS011;19444;50.518;10.870;2022-08-24T19:30:27;6.35;;;3.22;;
32932;SDS011;19444;50.518;10.870;2022-08-24T19:33:25;5.32;;;3.50;;
32932;SDS011;19444;50.518;10.870;2022-08-24T19:36:26;4.50;;;3.25;;
32932;SDS011;19444;50.518;10.870;2022-08-24T19:39:25;4.65;;;3.05;;
32932;SDS011;19444;50.518;10.870;2022-08-24T19:42:27;4.03;;;3.20;;
32932;SDS011;19444;50.518;10.870;2022-08-24T19:45:24;4.53;;;3.40;;
32932;SDS011;19444;50.518;10.870;2022-08-24T19:48:40;4.97;;;3.28;;
32932;SDS011;19444;50.518;10.870;2022-08-24T19:51:37;4.63;;;3.60;;
32932;SDS011;19444;50.518;10.870;2022-08-24T19:54:35;4.32;;;3.53;;
32932;SDS011;19444;50.518;10.870;2022-08-24T20:00:54;6.93;;;3.87;;
32932;SDS011;19444;50.518;10.870;2022-08-24T20:03:56;4.78;;;3.53;;
32932;SDS011;19444;50.518;10.870;2022-08-24T20:06:53;3.42;;;2.97;;
32932;SDS011;19444;50.518;10.870;2022-08-24T20:09:50;3.88;;;3.45;;
32932;SDS011;19444;50.518;10.870;2022-08-24T20:12:47;4.25;;;3.20;;
32932;SDS011;19444;50.518;10.870;2022-08-24T20:15:44;4.35;;;3.10;;
32932;SDS011;19444;50.518;10.870;2022-08-24T20:18:41;5.68;;;3.72;;
32932;SDS011;19444;50.518;10.870;2022-08-24T20:21:39;4.40;;;3.90;;
32932;SDS011;19444;50.518;10.870;2022-08-24T20:24:36;4.28;;;3.65;;
32932;SDS011;19444;50.518;10.870;2022-08-24T20:27:33;5.30;;;3.90;;
32932;SDS011;19444;50.518;10.870;2022-08-24T20:30:30;3.80;;;3.35;;
32932;SDS011;19444;50.518;10.870;2022-08-24T20:33:27;4.25;;;3.72;;
32932;SDS011;19444;50.518;10.870;2022-08-24T20:36:25;3.65;;;3.25;;